createdAt,value
2019-03-15T00:00:07.977Z,0.00
2019-03-15T00:01:08.343Z,0.00
2019-03-15T00:02:08.694Z,0.00
2019-03-15T00:03:08.874Z,0.00
2019-03-15T00:04:09.181Z,0.00
2019-03-15T00:05:09.463Z,0.00
2019-03-15T00:06:09.790Z,0.00
2019-03-15T00:07:10.096Z,0.00
2019-03-15T00:08:10.399Z,0.00
2019-03-15T00:09:10.678Z,0.00
2019-03-15T00:10:11.040Z,0.00
2019-03-15T00:11:11.338Z,0.00
2019-03-15T00:12:11.598Z,0.00
2019-03-15T00:13:12.429Z,0.00
2019-03-15T00:14:12.176Z,0.00
2019-03-15T00:15:12.492Z,0.00
2019-03-15T00:16:12.788Z,0.00
2019-03-15T00:17:13.107Z,0.00
2019-03-15T00:18:13.445Z,0.00
2019-03-15T00:19:13.750Z,0.00
2019-03-15T00:20:14.030Z,0.00
2019-03-15T00:21:14.317Z,0.00
2019-03-15T00:22:14.621Z,0.00
2019-03-15T00:23:14.896Z,0.00
2019-03-15T00:24:15.284Z,0.00
2019-03-15T00:25:15.529Z,0.00
2019-03-15T00:26:15.819Z,0.00
2019-03-15T00:27:16.254Z,0.00
2019-03-15T00:28:16.410Z,0.00
2019-03-15T00:29:16.712Z,0.00
2019-03-15T00:30:17.027Z,0.00
2019-03-15T00:31:17.308Z,0.00
2019-03-15T00:32:17.628Z,0.00
2019-03-15T00:33:17.887Z,0.00
2019-03-15T00:34:18.197Z,0.00
2019-03-15T00:35:18.682Z,0.00
2019-03-15T00:36:18.802Z,0.00
2019-03-15T00:37:19.132Z,0.00
2019-03-15T00:38:19.388Z,0.00
2019-03-15T00:39:19.706Z,0.00
2019-03-15T00:40:20.021Z,0.00
2019-03-15T00:41:20.317Z,0.00
2019-03-15T00:42:20.641Z,0.00
2019-03-15T00:43:20.955Z,0.00
2019-03-15T00:44:21.191Z,0.00
2019-03-15T00:45:21.510Z,0.00
2019-03-15T00:46:21.792Z,0.00
2019-03-15T00:47:22.110Z,0.00
2019-03-15T00:48:22.390Z,0.00
2019-03-15T00:49:22.709Z,0.00
2019-03-15T00:50:23.000Z,0.00
2019-03-15T00:51:23.328Z,0.00
2019-03-15T00:52:23.585Z,0.00
2019-03-15T00:53:23.881Z,0.00
2019-03-15T00:54:24.193Z,0.00
2019-03-15T00:55:24.502Z,0.00
2019-03-15T00:56:24.769Z,0.00
2019-03-15T00:57:25.344Z,0.00
2019-03-15T00:58:25.386Z,0.00
2019-03-15T00:59:25.722Z,0.00
2019-03-15T01:00:26.083Z,0.00
2019-03-15T01:01:26.265Z,0.00
2019-03-15T01:02:26.606Z,0.00
2019-03-15T01:03:26.882Z,0.00
2019-03-15T01:04:27.180Z,0.00
2019-03-15T01:05:27.500Z,0.00
2019-03-15T01:06:27.782Z,0.00
2019-03-15T01:07:28.078Z,0.00
2019-03-15T01:08:28.494Z,0.00
2019-03-15T01:09:28.721Z,0.00
2019-03-15T01:10:29.031Z,0.00
2019-03-15T01:11:29.319Z,0.00
2019-03-15T01:12:29.613Z,0.00
2019-03-15T01:13:29.943Z,0.00
2019-03-15T01:14:30.243Z,0.00
2019-03-15T01:15:30.558Z,0.00
2019-03-15T01:16:30.963Z,0.00
2019-03-15T01:17:31.122Z,0.00
2019-03-15T01:18:31.443Z,0.00
2019-03-15T01:19:31.760Z,0.00
2019-03-15T01:20:32.070Z,0.00
2019-03-15T01:21:32.359Z,0.00
2019-03-15T01:22:32.668Z,0.00
2019-03-15T01:23:32.960Z,0.00
2019-03-15T01:24:33.296Z,0.00
2019-03-15T01:25:33.554Z,0.00
2019-03-15T01:26:33.851Z,0.00
2019-03-15T01:27:34.156Z,0.00
2019-03-15T01:28:34.503Z,0.00
2019-03-15T01:29:34.727Z,0.00
2019-03-15T01:30:35.057Z,0.00
2019-03-15T01:31:35.363Z,0.00
2019-03-15T01:32:35.739Z,0.00
2019-03-15T01:33:35.992Z,0.00
2019-03-15T01:34:36.248Z,0.00
2019-03-15T01:35:36.566Z,0.00
2019-03-15T01:36:36.866Z,0.00
2019-03-15T01:37:37.176Z,0.00
2019-03-15T01:38:37.485Z,0.00
2019-03-15T01:39:37.768Z,0.00
2019-03-15T01:40:38.913Z,0.00
2019-03-15T01:41:38.480Z,0.00
2019-03-15T01:42:38.674Z,0.00
2019-03-15T01:43:38.981Z,0.00
2019-03-15T01:44:39.264Z,0.00
2019-03-15T01:45:39.582Z,0.00
2019-03-15T01:46:39.840Z,0.00
2019-03-15T01:47:40.175Z,0.00
2019-03-15T01:48:40.480Z,0.00
2019-03-15T01:49:40.914Z,0.00
2019-03-15T01:50:41.072Z,0.00
2019-03-15T01:51:41.493Z,0.00
2019-03-15T01:52:41.674Z,0.00
2019-03-15T01:53:41.992Z,0.00
2019-03-15T01:54:42.274Z,0.00
2019-03-15T01:55:42.587Z,0.00
2019-03-15T01:56:42.874Z,0.00
2019-03-15T01:57:43.231Z,0.00
2019-03-15T01:58:43.478Z,0.00
2019-03-15T01:59:43.765Z,0.00
2019-03-15T02:00:44.081Z,0.00
2019-03-15T02:01:44.363Z,0.00
2019-03-15T02:02:44.658Z,0.00
2019-03-15T02:03:44.986Z,0.00
2019-03-15T02:04:45.280Z,0.00
2019-03-15T02:05:45.693Z,0.00
2019-03-15T02:06:45.866Z,0.00
2019-03-15T02:07:46.173Z,0.00
2019-03-15T02:08:46.467Z,0.00
2019-03-15T02:09:46.767Z,0.00
2019-03-15T02:10:47.095Z,0.00
2019-03-15T02:11:47.384Z,0.00
2019-03-15T02:12:47.696Z,0.00
2019-03-15T02:13:48.027Z,0.00
2019-03-15T02:14:48.521Z,0.00
2019-03-15T02:15:48.594Z,0.00
2019-03-15T02:16:49.015Z,0.00
2019-03-15T02:17:49.189Z,0.00
2019-03-15T02:18:49.484Z,0.00
2019-03-15T02:19:49.770Z,0.00
2019-03-15T02:20:50.085Z,0.00
2019-03-15T02:21:50.392Z,0.00
2019-03-15T02:22:50.782Z,0.00
2019-03-15T02:23:50.991Z,0.00
2019-03-15T02:24:51.269Z,0.00
2019-03-15T02:25:51.573Z,0.00
2019-03-15T02:26:51.866Z,0.00
2019-03-15T02:27:52.176Z,0.00
2019-03-15T02:28:52.509Z,0.00
2019-03-15T02:29:52.781Z,0.00
2019-03-15T02:30:53.160Z,0.00
2019-03-15T02:31:53.370Z,0.00
2019-03-15T02:32:53.694Z,0.00
2019-03-15T02:33:54.223Z,0.00
2019-03-15T02:34:54.277Z,0.00
2019-03-15T02:35:54.559Z,0.00
2019-03-15T02:36:55.099Z,0.00
2019-03-15T02:37:55.200Z,0.00
2019-03-15T02:38:55.533Z,0.00
2019-03-15T02:39:55.768Z,0.00
2019-03-15T02:40:56.082Z,0.00
2019-03-15T02:41:56.378Z,0.00
2019-03-15T02:42:56.686Z,0.00
2019-03-15T02:43:57.012Z,0.00
2019-03-15T02:44:57.373Z,0.00
2019-03-15T02:45:59.058Z,0.00
2019-03-15T02:46:57.942Z,0.00
2019-03-15T02:47:58.176Z,0.00
2019-03-15T02:48:58.504Z,0.00
2019-03-15T02:49:58.787Z,0.00
2019-03-15T02:50:59.113Z,0.00
2019-03-15T02:51:59.403Z,0.00
2019-03-15T02:52:59.701Z,0.00
2019-03-15T02:54:00.827Z,0.00
2019-03-15T02:55:00.434Z,0.00
2019-03-15T02:56:00.706Z,0.00
2019-03-15T02:57:00.911Z,0.00
2019-03-15T02:58:02.008Z,0.00
2019-03-15T02:59:01.497Z,0.00
2019-03-15T03:00:01.977Z,0.00
2019-03-15T03:01:02.103Z,0.00
2019-03-15T03:02:02.413Z,0.00
2019-03-15T03:03:02.724Z,0.00
2019-03-15T03:04:03.089Z,0.00
2019-03-15T03:05:03.283Z,0.00
2019-03-15T03:06:03.610Z,0.00
2019-03-15T03:07:03.904Z,0.00
2019-03-15T03:08:04.208Z,0.00
2019-03-15T03:09:04.510Z,0.00
2019-03-15T03:10:04.773Z,0.00
2019-03-15T03:11:05.090Z,0.00
2019-03-15T03:12:05.470Z,0.00
2019-03-15T03:13:05.706Z,0.00
2019-03-15T03:14:05.996Z,0.00
2019-03-15T03:15:06.262Z,0.00
2019-03-15T03:16:06.567Z,0.00
2019-03-15T03:17:06.910Z,0.00
2019-03-15T03:18:07.614Z,0.00
2019-03-15T03:19:07.507Z,0.00
2019-03-15T03:20:07.834Z,0.00
2019-03-15T03:21:08.073Z,0.00
2019-03-15T03:22:09.066Z,0.00
2019-03-15T03:23:08.677Z,0.00
2019-03-15T03:24:08.988Z,0.00
2019-03-15T03:25:09.274Z,0.00
2019-03-15T03:26:09.583Z,0.00
2019-03-15T03:27:09.889Z,0.00
2019-03-15T03:28:10.185Z,0.00
2019-03-15T03:29:10.531Z,0.00
2019-03-15T03:30:10.788Z,0.00
2019-03-15T03:31:11.318Z,0.00
2019-03-15T03:32:13.493Z,0.00
2019-03-15T03:33:12.421Z,0.00
2019-03-15T03:34:12.650Z,0.00
2019-03-15T03:35:12.529Z,0.00
2019-03-15T03:36:12.631Z,0.00
2019-03-15T03:37:13.024Z,0.00
2019-03-15T03:38:13.190Z,0.00
2019-03-15T03:39:13.494Z,0.00
2019-03-15T03:40:13.802Z,0.00
2019-03-15T03:41:14.120Z,0.00
2019-03-15T03:42:14.422Z,0.00
2019-03-15T03:43:14.681Z,0.00
2019-03-15T03:44:14.994Z,0.00
2019-03-15T03:45:15.410Z,0.00
2019-03-15T03:46:15.611Z,0.00
2019-03-15T03:47:15.915Z,0.00
2019-03-15T03:48:16.187Z,0.00
2019-03-15T03:49:16.497Z,0.00
2019-03-15T03:50:16.815Z,0.00
2019-03-15T03:51:17.095Z,0.00
2019-03-15T03:52:17.413Z,0.00
2019-03-15T03:53:17.739Z,0.00
2019-03-15T03:54:17.976Z,0.00
2019-03-15T03:55:18.297Z,0.00
2019-03-15T03:56:18.581Z,0.00
2019-03-15T03:57:18.895Z,0.00
2019-03-15T03:58:19.179Z,0.00
2019-03-15T03:59:19.492Z,0.00
2019-03-15T04:00:19.784Z,0.00
2019-03-15T04:01:20.176Z,0.00
2019-03-15T04:02:20.379Z,0.00
2019-03-15T04:03:20.669Z,0.00
2019-03-15T04:04:20.982Z,0.00
2019-03-15T04:05:21.299Z,0.00
2019-03-15T04:06:21.563Z,0.00
2019-03-15T04:07:21.896Z,0.00
2019-03-15T04:08:22.191Z,0.00
2019-03-15T04:09:22.522Z,0.00
2019-03-15T04:10:22.890Z,0.00
2019-03-15T04:11:23.074Z,0.00
2019-03-15T04:12:23.394Z,0.00
2019-03-15T04:13:23.921Z,0.00
2019-03-15T04:14:23.992Z,0.00
2019-03-15T04:15:24.301Z,0.00
2019-03-15T04:16:24.580Z,0.00
2019-03-15T04:17:24.921Z,0.00
2019-03-15T04:18:25.226Z,0.00
2019-03-15T04:19:25.491Z,0.00
2019-03-15T04:20:25.789Z,0.00
2019-03-15T04:21:26.072Z,0.00
2019-03-15T04:22:26.372Z,0.00
2019-03-15T04:23:26.673Z,0.00
2019-03-15T04:24:26.995Z,0.00
2019-03-15T04:25:27.314Z,0.00
2019-03-15T04:26:27.685Z,0.00
2019-03-15T04:27:27.881Z,0.00
2019-03-15T04:28:28.189Z,0.00
2019-03-15T04:29:28.505Z,0.00
2019-03-15T04:30:28.810Z,0.00
2019-03-15T04:31:29.092Z,0.00
2019-03-15T04:32:29.409Z,0.00
2019-03-15T04:33:29.676Z,0.00
2019-03-15T04:34:30.255Z,0.00
2019-03-15T04:35:30.290Z,0.00
2019-03-15T04:36:30.589Z,0.00
2019-03-15T04:37:30.883Z,0.00
2019-03-15T04:38:31.176Z,0.00
2019-03-15T04:39:31.464Z,0.00
2019-03-15T04:40:31.777Z,0.00
2019-03-15T04:41:32.069Z,0.00
2019-03-15T04:42:32.412Z,0.00
2019-03-15T04:43:32.697Z,0.00
2019-03-15T04:44:32.980Z,0.00
2019-03-15T04:45:33.287Z,0.00
2019-03-15T04:46:33.584Z,0.00
2019-03-15T04:47:33.882Z,0.00
2019-03-15T04:48:34.238Z,0.00
2019-03-15T04:49:34.524Z,0.00
2019-03-15T04:50:34.812Z,0.00
2019-03-15T04:51:35.184Z,0.00
2019-03-15T04:52:35.379Z,0.00
2019-03-15T04:53:35.695Z,0.00
2019-03-15T04:54:35.983Z,0.00
2019-03-15T04:55:36.292Z,0.00
2019-03-15T04:56:36.558Z,0.00
2019-03-15T04:57:36.913Z,0.00
2019-03-15T04:58:37.188Z,0.00
2019-03-15T04:59:37.604Z,0.00
2019-03-15T05:00:37.776Z,0.00
2019-03-15T05:01:38.079Z,0.00
2019-03-15T05:02:38.404Z,0.00
2019-03-15T05:03:38.715Z,0.00
2019-03-15T05:04:39.013Z,0.00
2019-03-15T05:05:39.316Z,0.00
2019-03-15T05:06:39.595Z,0.00
2019-03-15T05:07:39.985Z,0.00
2019-03-15T05:08:40.201Z,0.00
2019-03-15T05:09:40.505Z,0.00
2019-03-15T05:10:40.799Z,0.00
2019-03-15T05:11:41.081Z,0.00
2019-03-15T05:12:41.365Z,0.00
2019-03-15T05:13:41.676Z,0.00
2019-03-15T05:14:41.989Z,0.00
2019-03-15T05:15:42.354Z,0.00
2019-03-15T05:16:42.563Z,5.62
2019-03-15T05:17:42.864Z,5.62
2019-03-15T05:18:43.161Z,5.62
2019-03-15T05:19:43.464Z,5.62
2019-03-15T05:20:43.800Z,5.62
2019-03-15T05:21:44.088Z,5.62
2019-03-15T05:22:44.378Z,11.25
2019-03-15T05:23:44.726Z,11.25
2019-03-15T05:24:45.034Z,11.25
2019-03-15T05:25:45.303Z,11.25
2019-03-15T05:26:45.580Z,11.25
2019-03-15T05:27:45.879Z,11.25
2019-03-15T05:28:46.197Z,11.25
2019-03-15T05:29:46.489Z,11.25
2019-03-15T05:30:46.787Z,16.88
2019-03-15T05:31:47.092Z,16.88
2019-03-15T05:32:47.504Z,16.88
2019-03-15T05:33:47.705Z,11.25
2019-03-15T05:34:47.989Z,11.25
2019-03-15T05:35:48.297Z,16.88
2019-03-15T05:36:48.606Z,16.88
2019-03-15T05:37:48.973Z,16.88
2019-03-15T05:38:49.193Z,16.88
2019-03-15T05:39:49.486Z,16.88
2019-03-15T05:40:49.895Z,16.88
2019-03-15T05:41:50.071Z,22.50
2019-03-15T05:42:50.362Z,16.88
2019-03-15T05:43:52.997Z,16.88
2019-03-15T05:44:51.044Z,16.88
2019-03-15T05:45:51.253Z,22.50
2019-03-15T05:46:51.617Z,28.12
2019-03-15T05:47:51.903Z,33.75
2019-03-15T05:48:52.326Z,33.75
2019-03-15T05:49:52.522Z,33.75
2019-03-15T05:50:52.800Z,33.75
2019-03-15T05:51:53.080Z,33.75
2019-03-15T05:52:53.638Z,28.12
2019-03-15T05:53:53.720Z,22.50
2019-03-15T05:54:54.005Z,28.12
2019-03-15T05:55:54.292Z,28.12
2019-03-15T05:56:54.639Z,22.50
2019-03-15T05:57:54.855Z,22.50
2019-03-15T05:58:55.206Z,22.50
2019-03-15T05:59:55.499Z,28.12
2019-03-15T06:00:55.789Z,22.50
2019-03-15T06:01:56.105Z,22.50
2019-03-15T06:02:56.385Z,45.00
2019-03-15T06:03:56.689Z,61.88
2019-03-15T06:04:57.051Z,67.50
2019-03-15T06:05:57.372Z,73.12
2019-03-15T06:06:57.612Z,61.88
2019-03-15T06:07:57.897Z,67.50
2019-03-15T06:08:58.202Z,78.75
2019-03-15T06:09:58.506Z,78.75
2019-03-15T06:10:58.845Z,84.38
2019-03-15T06:11:59.113Z,95.62
2019-03-15T06:12:59.407Z,90.00
2019-03-15T06:13:59.827Z,90.00
2019-03-15T06:14:59.995Z,90.00
2019-03-15T06:16:00.295Z,84.38
2019-03-15T06:17:00.601Z,90.00
2019-03-15T06:18:00.889Z,95.62
2019-03-15T06:19:01.205Z,84.38
2019-03-15T06:20:01.516Z,95.62
2019-03-15T06:21:01.796Z,101.25
2019-03-15T06:22:02.165Z,106.88
2019-03-15T06:23:02.393Z,106.88
2019-03-15T06:24:02.695Z,106.88
2019-03-15T06:25:02.969Z,106.88
2019-03-15T06:26:03.282Z,106.88
2019-03-15T06:27:03.608Z,101.25
2019-03-15T06:28:03.897Z,112.50
2019-03-15T06:29:04.207Z,123.75
2019-03-15T06:30:04.563Z,95.62
2019-03-15T06:31:04.753Z,90.00
2019-03-15T06:32:05.094Z,106.88
2019-03-15T06:33:05.385Z,106.88
2019-03-15T06:34:05.688Z,123.75
2019-03-15T06:35:05.978Z,129.38
2019-03-15T06:36:06.292Z,129.38
2019-03-15T06:37:06.605Z,146.25
2019-03-15T06:38:06.911Z,140.62
2019-03-15T06:39:08.401Z,146.25
2019-03-15T06:40:07.526Z,151.88
2019-03-15T06:41:07.776Z,168.75
2019-03-15T06:42:08.095Z,168.75
2019-03-15T06:43:08.363Z,135.00
2019-03-15T06:44:08.676Z,129.38
2019-03-15T06:45:09.266Z,157.50
2019-03-15T06:46:09.282Z,168.75
2019-03-15T06:47:09.709Z,180.00
2019-03-15T06:48:09.870Z,129.38
2019-03-15T06:49:10.185Z,157.50
2019-03-15T06:50:10.527Z,191.25
2019-03-15T06:51:11.051Z,208.12
2019-03-15T06:52:11.117Z,219.38
2019-03-15T06:53:11.379Z,191.25
2019-03-15T06:54:12.020Z,151.88
2019-03-15T06:55:12.211Z,135.00
2019-03-15T06:56:12.320Z,106.88
2019-03-15T06:57:12.640Z,101.25
2019-03-15T06:58:12.901Z,118.12
2019-03-15T06:59:13.211Z,112.50
2019-03-15T07:00:13.585Z,129.38
2019-03-15T07:01:13.829Z,106.88
2019-03-15T07:02:14.145Z,95.62
2019-03-15T07:03:14.457Z,112.50
2019-03-15T07:04:14.716Z,84.38
2019-03-15T07:05:15.061Z,73.12
2019-03-15T07:06:15.315Z,95.62
2019-03-15T07:07:15.633Z,112.50
2019-03-15T07:08:15.913Z,135.00
2019-03-15T07:09:16.214Z,146.25
2019-03-15T07:10:16.538Z,135.00
2019-03-15T07:11:16.871Z,129.38
2019-03-15T07:12:17.110Z,123.75
2019-03-15T07:13:17.397Z,180.00
2019-03-15T07:14:17.686Z,191.25
2019-03-15T07:15:18.024Z,185.62
2019-03-15T07:16:18.289Z,191.25
2019-03-15T07:17:18.614Z,191.25
2019-03-15T07:18:19.033Z,140.62
2019-03-15T07:19:26.399Z,123.75
2019-03-15T07:20:20.813Z,106.88
2019-03-15T07:21:19.787Z,140.62
2019-03-15T07:22:20.303Z,180.00
2019-03-15T07:23:20.403Z,225.00
2019-03-15T07:24:25.102Z,208.12
2019-03-15T07:25:21.021Z,196.88
2019-03-15T07:26:21.308Z,241.88
2019-03-15T07:27:22.041Z,258.75
2019-03-15T07:28:22.024Z,281.25
2019-03-15T07:29:22.212Z,270.00
2019-03-15T07:30:22.749Z,264.38
2019-03-15T07:31:22.802Z,275.62
2019-03-15T07:32:23.099Z,315.00
2019-03-15T07:33:23.434Z,320.62
2019-03-15T07:34:23.693Z,320.62
2019-03-15T07:35:24.021Z,315.00
2019-03-15T07:36:24.381Z,303.75
2019-03-15T07:37:24.589Z,298.12
2019-03-15T07:38:24.890Z,320.62
2019-03-15T07:39:26.422Z,292.50
2019-03-15T07:40:25.495Z,286.88
2019-03-15T07:41:25.793Z,298.12
2019-03-15T07:42:26.115Z,303.75
2019-03-15T07:43:26.370Z,320.62
2019-03-15T07:44:26.768Z,309.38
2019-03-15T07:45:27.002Z,343.12
2019-03-15T07:46:27.300Z,399.38
2019-03-15T07:47:27.607Z,348.75
2019-03-15T07:48:27.896Z,337.50
2019-03-15T07:49:28.174Z,348.75
2019-03-15T07:50:28.501Z,371.25
2019-03-15T07:51:28.862Z,388.12
2019-03-15T07:52:29.128Z,427.50
2019-03-15T07:53:29.406Z,393.75
2019-03-15T07:54:37.424Z,444.38
2019-03-15T07:56:34.326Z,416.25
2019-03-15T07:57:30.634Z,399.38
2019-03-15T07:58:30.919Z,354.38
2019-03-15T07:59:31.220Z,326.25
2019-03-15T08:00:31.575Z,354.38
2019-03-15T08:01:31.903Z,348.75
2019-03-15T08:02:32.113Z,331.88
2019-03-15T08:03:32.414Z,309.38
2019-03-15T08:04:35.653Z,326.25
2019-03-15T08:05:33.022Z,320.62
2019-03-15T08:06:35.138Z,331.88
2019-03-15T08:07:36.558Z,320.62
2019-03-15T08:08:34.975Z,331.88
2019-03-15T08:09:34.358Z,303.75
2019-03-15T08:10:34.543Z,360.00
2019-03-15T08:11:34.808Z,354.38
2019-03-15T08:12:38.451Z,320.62
2019-03-15T08:13:35.447Z,360.00
2019-03-15T08:14:35.768Z,393.75
2019-03-15T08:15:36.091Z,371.25
2019-03-15T08:16:36.340Z,416.25
2019-03-15T08:17:36.699Z,427.50
2019-03-15T08:18:36.942Z,444.38
2019-03-15T08:19:37.232Z,388.12
2019-03-15T08:20:37.544Z,331.88
2019-03-15T08:21:37.826Z,371.25
2019-03-15T08:22:38.124Z,365.62
2019-03-15T08:23:38.425Z,382.50
2019-03-15T08:24:50.548Z,405.00
2019-03-15T08:25:40.119Z,399.38
2019-03-15T08:26:39.309Z,416.25
2019-03-15T08:27:39.616Z,405.00
2019-03-15T08:28:39.919Z,405.00
2019-03-15T08:29:40.216Z,388.12
2019-03-15T08:30:40.524Z,388.12
2019-03-15T08:31:40.807Z,410.62
2019-03-15T08:32:43.218Z,399.38
2019-03-15T08:33:41.481Z,405.00
2019-03-15T08:34:41.706Z,427.50
2019-03-15T08:35:42.027Z,438.75
2019-03-15T08:36:42.305Z,427.50
2019-03-15T08:37:42.764Z,393.75
2019-03-15T08:38:47.397Z,354.38
2019-03-15T08:39:43.229Z,388.12
2019-03-15T08:40:43.514Z,421.88
2019-03-15T08:41:43.827Z,466.88
2019-03-15T08:42:44.260Z,466.88
2019-03-15T08:43:45.964Z,438.75
2019-03-15T08:44:44.726Z,331.88
2019-03-15T08:45:45.059Z,371.25
2019-03-15T08:46:45.324Z,472.50
2019-03-15T08:47:45.624Z,303.75
2019-03-15T08:48:45.946Z,208.12
2019-03-15T08:49:46.221Z,230.62
2019-03-15T08:50:46.635Z,298.12
2019-03-15T08:51:46.814Z,320.62
2019-03-15T08:52:47.129Z,292.50
2019-03-15T08:53:47.433Z,275.62
2019-03-15T08:54:47.716Z,241.88
2019-03-15T08:55:48.032Z,275.62
2019-03-15T08:56:48.299Z,303.75
2019-03-15T08:57:48.625Z,264.38
2019-03-15T08:58:48.976Z,253.12
2019-03-15T08:59:55.503Z,275.62
2019-03-15T09:00:50.518Z,236.25
2019-03-15T09:01:49.785Z,320.62
2019-03-15T09:02:50.116Z,393.75
2019-03-15T09:03:50.437Z,343.12
2019-03-15T09:04:50.713Z,354.38
2019-03-15T09:05:51.015Z,343.12
2019-03-15T09:06:51.385Z,331.88
2019-03-15T09:07:51.595Z,371.25
2019-03-15T09:08:52.142Z,427.50
2019-03-15T09:09:52.195Z,427.50
2019-03-15T09:10:52.578Z,450.00
2019-03-15T09:11:52.816Z,478.12
2019-03-15T09:12:53.145Z,478.12
2019-03-15T09:13:53.442Z,472.50
2019-03-15T09:14:53.730Z,472.50
2019-03-15T09:15:54.052Z,478.12
2019-03-15T09:16:54.339Z,466.88
2019-03-15T09:17:54.653Z,466.88
2019-03-15T09:18:55.474Z,472.50
2019-03-15T09:19:55.224Z,461.25
2019-03-15T09:20:55.537Z,472.50
2019-03-15T09:21:55.856Z,461.25
2019-03-15T09:22:56.171Z,388.12
2019-03-15T09:23:56.572Z,410.62
2019-03-15T09:24:56.737Z,489.38
2019-03-15T09:25:57.074Z,466.88
2019-03-15T09:26:57.367Z,495.00
2019-03-15T09:27:57.643Z,545.62
2019-03-15T09:28:57.962Z,511.88
2019-03-15T09:29:58.218Z,500.62
2019-03-15T09:30:58.551Z,455.62
2019-03-15T09:32:06.220Z,433.12
2019-03-15T09:33:02.958Z,472.50
2019-03-15T09:33:59.465Z,466.88
2019-03-15T09:34:59.727Z,410.62
2019-03-15T09:36:00.037Z,461.25
2019-03-15T09:37:00.357Z,545.62
2019-03-15T09:38:00.666Z,534.38
2019-03-15T09:39:00.984Z,416.25
2019-03-15T09:40:01.627Z,354.38
2019-03-15T09:41:01.524Z,371.25
2019-03-15T09:42:01.854Z,376.88
2019-03-15T09:43:02.147Z,360.00
2019-03-15T09:44:02.491Z,337.50
2019-03-15T09:45:02.765Z,315.00
2019-03-15T09:46:03.063Z,303.75
2019-03-15T09:47:03.356Z,309.38
2019-03-15T09:48:03.700Z,270.00
2019-03-15T09:49:03.935Z,348.75
2019-03-15T09:50:04.230Z,438.75
2019-03-15T09:51:04.541Z,371.25
2019-03-15T09:52:04.854Z,315.00
2019-03-15T09:53:05.958Z,281.25
2019-03-15T09:54:05.460Z,292.50
2019-03-15T09:55:05.739Z,326.25
2019-03-15T09:56:06.070Z,315.00
2019-03-15T09:57:06.472Z,365.62
2019-03-15T09:58:06.630Z,303.75
2019-03-15T09:59:06.974Z,326.25
2019-03-15T10:00:07.248Z,348.75
2019-03-15T10:01:07.770Z,472.50
2019-03-15T10:02:08.075Z,393.75
2019-03-15T10:03:21.069Z,326.25
2019-03-15T10:04:09.462Z,303.75
2019-03-15T10:05:11.418Z,303.75
2019-03-15T10:06:14.946Z,450.00
2019-03-15T10:07:10.367Z,478.12
2019-03-15T10:08:09.637Z,545.62
2019-03-15T10:09:09.934Z,534.38
2019-03-15T10:10:13.962Z,534.38
2019-03-15T10:11:10.547Z,607.50
2019-03-15T10:12:10.866Z,646.88
2019-03-15T10:13:11.210Z,635.62
2019-03-15T10:14:11.437Z,601.88
2019-03-15T10:15:11.717Z,568.12
2019-03-15T10:16:12.026Z,568.12
2019-03-15T10:17:12.342Z,568.12
2019-03-15T10:18:12.634Z,556.88
2019-03-15T10:19:12.943Z,562.50
2019-03-15T10:20:13.255Z,568.12
2019-03-15T10:21:13.618Z,534.38
2019-03-15T10:22:13.849Z,568.12
2019-03-15T10:23:14.137Z,596.25
2019-03-15T10:24:15.753Z,607.50
2019-03-15T10:25:14.751Z,596.25
2019-03-15T10:26:15.224Z,528.75
2019-03-15T10:27:15.334Z,478.12
2019-03-15T10:28:15.642Z,573.75
2019-03-15T10:29:18.438Z,630.00
2019-03-15T10:30:16.284Z,590.62
2019-03-15T10:31:16.543Z,601.88
2019-03-15T10:32:16.841Z,523.12
2019-03-15T10:33:17.140Z,433.12
2019-03-15T10:34:17.452Z,461.25
2019-03-15T10:35:17.758Z,556.88
2019-03-15T10:36:18.048Z,523.12
2019-03-15T10:37:18.413Z,455.62
2019-03-15T10:38:18.798Z,331.88
2019-03-15T10:39:18.946Z,281.25
2019-03-15T10:40:19.257Z,376.88
2019-03-15T10:41:19.539Z,466.88
2019-03-15T10:42:19.860Z,461.25
2019-03-15T10:43:20.122Z,528.75
2019-03-15T10:44:20.425Z,573.75
2019-03-15T10:45:20.747Z,528.75
2019-03-15T10:46:21.598Z,444.38
2019-03-15T10:47:21.337Z,405.00
2019-03-15T10:48:25.292Z,382.50
2019-03-15T10:49:21.935Z,343.12
2019-03-15T10:50:22.255Z,388.12
2019-03-15T10:51:22.536Z,466.88
2019-03-15T10:52:22.856Z,506.25
2019-03-15T10:53:23.135Z,466.88
2019-03-15T10:54:23.470Z,433.12
2019-03-15T10:55:23.737Z,371.25
2019-03-15T10:56:24.044Z,315.00
2019-03-15T10:57:24.336Z,309.38
2019-03-15T10:58:24.619Z,376.88
2019-03-15T10:59:24.931Z,343.12
2019-03-15T11:00:25.222Z,270.00
2019-03-15T11:01:25.514Z,281.25
2019-03-15T11:02:25.898Z,343.12
2019-03-15T11:03:26.093Z,382.50
2019-03-15T11:04:26.420Z,427.50
2019-03-15T11:05:26.717Z,461.25
2019-03-15T11:06:26.991Z,433.12
2019-03-15T11:07:27.353Z,444.38
2019-03-15T11:08:27.607Z,556.88
2019-03-15T11:09:27.908Z,641.25
2019-03-15T11:10:28.237Z,596.25
2019-03-15T11:11:28.624Z,489.38
2019-03-15T11:12:28.953Z,427.50
2019-03-15T11:13:29.217Z,483.75
2019-03-15T11:14:29.521Z,551.25
2019-03-15T11:15:29.849Z,601.88
2019-03-15T11:16:30.133Z,663.75
2019-03-15T11:17:30.481Z,697.50
2019-03-15T11:18:30.747Z,714.38
2019-03-15T11:19:31.153Z,708.75
2019-03-15T11:20:31.388Z,630.00
2019-03-15T11:21:31.752Z,545.62
2019-03-15T11:22:31.983Z,478.12
2019-03-15T11:23:32.278Z,495.00
2019-03-15T11:24:32.605Z,562.50
2019-03-15T11:25:32.934Z,579.38
2019-03-15T11:26:33.222Z,613.12
2019-03-15T11:27:33.559Z,641.25
2019-03-15T11:28:33.823Z,691.88
2019-03-15T11:29:34.191Z,731.25
2019-03-15T11:30:34.461Z,731.25
2019-03-15T11:31:34.737Z,748.12
2019-03-15T11:32:35.056Z,776.25
2019-03-15T11:33:35.356Z,759.38
2019-03-15T11:34:35.694Z,759.38
2019-03-15T11:35:36.068Z,776.25
2019-03-15T11:36:36.277Z,776.25
2019-03-15T11:37:36.597Z,753.75
2019-03-15T11:38:36.967Z,703.12
2019-03-15T11:39:37.203Z,714.38
2019-03-15T11:40:37.962Z,742.50
2019-03-15T11:41:37.828Z,708.75
2019-03-15T11:42:38.131Z,725.62
2019-03-15T11:43:38.497Z,731.25
2019-03-15T11:44:38.673Z,697.50
2019-03-15T11:45:39.043Z,720.00
2019-03-15T11:46:39.293Z,725.62
2019-03-15T11:48:00.699Z,703.12
2019-03-15T11:48:40.922Z,635.62
2019-03-15T11:49:40.198Z,528.75
2019-03-15T11:50:40.545Z,506.25
2019-03-15T11:51:42.434Z,579.38
2019-03-15T11:52:42.242Z,607.50
2019-03-15T11:53:41.506Z,585.00
2019-03-15T11:54:41.780Z,630.00
2019-03-15T11:55:42.128Z,669.38
2019-03-15T11:56:42.409Z,703.12
2019-03-15T11:57:42.708Z,624.38
2019-03-15T11:58:43.043Z,545.62
2019-03-15T11:59:43.329Z,500.62
2019-03-15T12:00:43.722Z,472.50
2019-03-15T12:01:43.934Z,495.00
2019-03-15T12:02:44.249Z,562.50
2019-03-15T12:03:52.560Z,579.38
2019-03-15T12:04:45.867Z,646.88
2019-03-15T12:05:45.180Z,652.50
2019-03-15T12:06:45.478Z,663.75
2019-03-15T12:07:45.780Z,731.25
2019-03-15T12:08:46.154Z,748.12
2019-03-15T12:09:46.378Z,748.12
2019-03-15T12:10:46.703Z,691.88
2019-03-15T12:11:46.994Z,562.50
2019-03-15T12:12:47.309Z,596.25
2019-03-15T12:13:47.642Z,596.25
2019-03-15T12:14:47.930Z,500.62
2019-03-15T12:15:48.269Z,568.12
2019-03-15T12:16:48.582Z,624.38
2019-03-15T12:17:48.830Z,618.75
2019-03-15T12:18:49.176Z,613.12
2019-03-15T12:19:49.464Z,568.12
2019-03-15T12:20:49.802Z,450.00
2019-03-15T12:21:50.073Z,410.62
2019-03-15T12:22:50.369Z,348.75
2019-03-15T12:23:50.691Z,298.12
2019-03-15T12:24:51.054Z,309.38
2019-03-15T12:25:51.625Z,354.38
2019-03-15T12:26:51.611Z,410.62
2019-03-15T12:27:51.919Z,371.25
2019-03-15T12:28:52.225Z,382.50
2019-03-15T12:29:52.540Z,427.50
2019-03-15T12:30:52.851Z,438.75
2019-03-15T12:31:53.144Z,421.88
2019-03-15T12:32:53.459Z,472.50
2019-03-15T12:33:53.853Z,562.50
2019-03-15T12:34:54.062Z,556.88
2019-03-15T12:35:54.402Z,483.75
2019-03-15T12:36:54.689Z,388.12
2019-03-15T12:37:55.042Z,264.38
2019-03-15T12:38:58.279Z,191.25
2019-03-15T12:39:55.592Z,168.75
2019-03-15T12:40:55.931Z,157.50
2019-03-15T12:41:56.348Z,168.75
2019-03-15T12:42:56.538Z,168.75
2019-03-15T12:43:56.874Z,185.62
2019-03-15T12:44:57.136Z,236.25
2019-03-15T12:45:57.458Z,264.38
2019-03-15T12:46:57.798Z,264.38
2019-03-15T12:47:58.070Z,258.75
2019-03-15T12:48:58.434Z,219.38
2019-03-15T12:49:58.765Z,225.00
2019-03-15T12:50:58.961Z,247.50
2019-03-15T12:51:59.316Z,270.00
2019-03-15T12:52:59.608Z,270.00
2019-03-15T12:53:59.944Z,230.62
2019-03-15T12:55:00.370Z,213.75